createdAt,value
2022-08-26T00:00:55.669Z,6.69
2022-08-26T00:05:55.606Z,7.00
2022-08-26T00:10:55.547Z,7.40
2022-08-26T00:15:55.464Z,6.09
2022-08-26T00:20:55.416Z,7.59
2022-08-26T00:25:55.332Z,6.69
2022-08-26T00:30:55.285Z,6.40
2022-08-26T00:35:55.212Z,6.09
2022-08-26T00:40:55.152Z,6.40
2022-08-26T00:45:55.183Z,6.69
2022-08-26T00:50:55.023Z,6.50
2022-08-26T00:55:54.950Z,7.19
2022-08-26T01:00:54.948Z,6.90
2022-08-26T01:05:54.809Z,7.00
2022-08-26T01:10:54.991Z,6.90
2022-08-26T01:15:54.679Z,7.09
2022-08-26T01:20:57.658Z,7.00
2022-08-26T01:25:54.559Z,6.90
2022-08-26T01:30:54.494Z,8.19
2022-08-26T01:35:54.420Z,6.40
2022-08-26T01:40:54.591Z,7.30
2022-08-26T01:45:54.360Z,7.50
2022-08-26T01:50:54.235Z,8.30
2022-08-26T01:55:54.171Z,7.50
2022-08-26T02:00:54.166Z,8.39
2022-08-26T02:05:54.032Z,10.00
2022-08-26T02:10:54.802Z,8.39
2022-08-26T02:15:54.044Z,7.69
2022-08-26T02:20:53.854Z,7.19
2022-08-26T02:25:53.787Z,12.89
2022-08-26T02:30:55.509Z,8.10
2022-08-26T02:35:53.657Z,6.90
2022-08-26T02:40:53.589Z,7.50
2022-08-26T02:45:53.526Z,8.50
2022-08-26T02:50:53.468Z,8.10
2022-08-26T02:55:53.394Z,8.69
2022-08-26T03:00:53.795Z,7.69
2022-08-26T03:05:53.272Z,8.00
2022-08-26T03:10:53.205Z,7.59
2022-08-26T03:15:53.206Z,8.10
2022-08-26T03:20:53.081Z,8.30
2022-08-26T03:25:53.010Z,9.60
2022-08-26T03:30:52.942Z,8.30
2022-08-26T03:35:52.868Z,7.59
2022-08-26T03:40:52.819Z,7.80
2022-08-26T03:45:52.736Z,7.50
2022-08-26T03:50:52.677Z,8.30
2022-08-26T03:55:52.614Z,7.69
2022-08-26T04:00:55.567Z,7.40
2022-08-26T04:05:52.469Z,8.10
2022-08-26T04:10:52.395Z,8.50
2022-08-26T04:15:52.698Z,8.60
2022-08-26T04:20:52.266Z,7.90
2022-08-26T04:25:52.219Z,9.10
2022-08-26T04:30:52.176Z,9.60
2022-08-26T04:35:52.074Z,8.60
2022-08-26T04:40:51.996Z,10.30
2022-08-26T04:45:51.951Z,8.19
2022-08-26T04:50:51.875Z,8.60
2022-08-26T04:55:52.474Z,9.19
2022-08-26T05:00:51.743Z,9.30
2022-08-26T05:05:51.668Z,9.80
2022-08-26T05:10:51.596Z,9.30
2022-08-26T05:15:51.639Z,8.39
2022-08-26T05:20:51.460Z,8.39
2022-08-26T05:25:54.703Z,9.10
2022-08-26T05:30:51.379Z,8.89
2022-08-26T05:35:51.273Z,8.80
2022-08-26T05:40:52.781Z,10.00
2022-08-26T05:45:51.141Z,10.19
2022-08-26T05:50:51.076Z,11.30
2022-08-26T05:55:51.000Z,10.50
2022-08-26T06:00:50.941Z,9.80
2022-08-26T06:05:50.871Z,10.39
2022-08-26T06:10:50.985Z,9.00
2022-08-26T06:15:50.795Z,8.80
2022-08-26T06:20:57.271Z,9.69
2022-08-26T06:25:50.616Z,10.30
2022-08-26T06:30:50.579Z,10.50
2022-08-26T06:35:50.490Z,9.89
2022-08-26T06:40:50.435Z,10.60
2022-08-26T06:45:50.360Z,9.30
2022-08-26T06:50:50.294Z,10.50
2022-08-26T06:55:51.813Z,10.00
2022-08-26T07:00:50.172Z,9.60
2022-08-26T07:05:50.092Z,9.60
2022-08-26T07:10:50.033Z,10.00
2022-08-26T07:15:49.998Z,9.80
2022-08-26T07:20:49.903Z,9.80
2022-08-26T07:25:49.863Z,9.19
2022-08-26T07:30:49.813Z,8.50
2022-08-26T07:35:49.710Z,9.19
2022-08-26T07:40:49.645Z,8.69
2022-08-26T07:45:49.614Z,7.50
2022-08-26T07:50:50.583Z,7.69
2022-08-26T07:55:49.459Z,8.10
2022-08-26T08:00:49.390Z,7.69
2022-08-26T08:05:49.321Z,8.39
2022-08-26T08:10:49.289Z,7.69
2022-08-26T08:15:50.296Z,9.00
2022-08-26T08:20:59.468Z,8.19
2022-08-26T08:25:50.115Z,7.69
2022-08-26T08:30:49.094Z,7.59
2022-08-26T08:35:48.948Z,7.69
2022-08-26T08:40:48.889Z,7.50
2022-08-26T08:45:49.661Z,7.50
2022-08-26T08:50:48.771Z,8.19
2022-08-26T08:55:48.688Z,8.69
2022-08-26T09:00:48.650Z,8.60
2022-08-26T09:05:48.990Z,8.10
2022-08-26T09:10:48.493Z,7.80
2022-08-26T09:15:48.424Z,9.30
2022-08-26T09:20:48.389Z,8.89
2022-08-26T09:25:48.349Z,8.80
2022-08-26T09:30:48.306Z,7.69
2022-08-26T09:35:48.718Z,7.59
2022-08-26T09:40:48.141Z,8.39
2022-08-26T09:45:50.275Z,13.69
2022-08-26T09:50:48.015Z,7.80
2022-08-26T09:55:47.943Z,8.00
2022-08-26T10:00:47.910Z,8.50
2022-08-26T10:05:47.812Z,7.40
2022-08-26T10:10:47.762Z,7.40
2022-08-26T10:15:50.669Z,8.10
2022-08-26T10:20:47.642Z,7.30
2022-08-26T10:25:47.579Z,7.19
2022-08-26T10:30:47.514Z,8.69
2022-08-26T10:35:47.446Z,6.00
2022-08-26T10:40:49.123Z,5.30
2022-08-26T10:45:47.350Z,5.40
2022-08-26T10:50:47.455Z,5.59
2022-08-26T10:55:47.184Z,4.90
2022-08-26T11:00:47.195Z,5.09
2022-08-26T11:05:47.056Z,4.80
2022-08-26T11:10:47.006Z,5.00
2022-08-26T11:15:46.918Z,4.90
2022-08-26T11:20:47.234Z,6.40
2022-08-26T11:25:46.781Z,5.90
2022-08-26T11:30:46.731Z,5.80
2022-08-26T11:35:46.657Z,5.59
2022-08-26T11:40:46.613Z,5.69
2022-08-26T11:45:46.567Z,5.00
2022-08-26T11:50:46.474Z,4.50
2022-08-26T11:55:47.335Z,5.19
2022-08-26T12:00:46.325Z,5.19
2022-08-26T12:05:46.248Z,5.80
2022-08-26T12:10:46.189Z,5.09
2022-08-26T12:15:46.116Z,5.09
2022-08-26T12:20:46.206Z,4.80
2022-08-26T12:25:46.013Z,4.80
2022-08-26T12:30:45.952Z,4.30
2022-08-26T12:35:45.865Z,4.50
2022-08-26T12:40:45.816Z,5.59
2022-08-26T12:45:45.804Z,5.50
2022-08-26T12:50:46.053Z,5.80
2022-08-26T12:55:45.615Z,5.90
2022-08-26T13:00:45.801Z,5.50
2022-08-26T13:05:45.488Z,5.80
2022-08-26T13:10:45.446Z,5.90
2022-08-26T13:15:45.368Z,6.80
2022-08-26T13:20:45.327Z,5.50
2022-08-26T13:25:45.240Z,5.30
2022-08-26T13:30:45.199Z,4.69
2022-08-26T13:35:45.114Z,3.70
2022-08-26T13:40:45.054Z,4.00
2022-08-26T13:45:44.991Z,3.70
2022-08-26T13:50:45.054Z,2.79
2022-08-26T13:55:44.857Z,2.70
2022-08-26T14:00:44.890Z,2.79
2022-08-26T14:05:44.743Z,2.90
2022-08-26T14:10:44.726Z,2.70
2022-08-26T14:15:44.857Z,2.79
2022-08-26T14:20:44.545Z,3.09
2022-08-26T14:25:44.477Z,2.79
2022-08-26T14:30:44.428Z,2.79
2022-08-26T14:35:48.790Z,2.90
2022-08-26T14:40:44.286Z,2.90
2022-08-26T14:45:44.257Z,2.90
2022-08-26T14:50:44.157Z,2.90
2022-08-26T14:55:44.094Z,2.70
2022-08-26T15:00:44.030Z,3.90
2022-08-26T15:05:47.388Z,3.00
2022-08-26T15:10:43.901Z,2.90
2022-08-26T15:15:43.846Z,3.09
2022-08-26T15:20:43.794Z,3.79
2022-08-26T15:25:43.717Z,3.50
2022-08-26T15:30:43.651Z,3.40
2022-08-26T15:35:43.583Z,3.59
2022-08-26T15:40:43.537Z,4.00
2022-08-26T15:45:43.445Z,3.40
2022-08-26T15:50:43.399Z,3.29
2022-08-26T15:55:43.317Z,3.40
2022-08-26T16:00:43.259Z,11.10
2022-08-26T16:05:43.294Z,5.40
2022-08-26T16:10:46.586Z,5.19
2022-08-26T16:15:43.107Z,4.09
2022-08-26T16:20:43.009Z,3.70
2022-08-26T16:25:44.944Z,3.50
2022-08-26T16:30:42.870Z,4.69
2022-08-26T16:35:42.818Z,3.90
2022-08-26T16:40:42.739Z,4.09
2022-08-26T16:45:42.678Z,3.20
2022-08-26T16:50:42.618Z,3.59
2022-08-26T16:55:42.544Z,3.50
2022-08-26T17:00:42.483Z,6.80
2022-08-26T17:05:42.404Z,7.50
2022-08-26T17:15:42.296Z,4.59
2022-08-26T17:20:42.218Z,4.30
2022-08-26T17:25:42.144Z,5.90
2022-08-26T17:30:42.139Z,3.79
2022-08-26T17:35:42.020Z,3.59
2022-08-26T17:40:41.953Z,4.00
2022-08-26T17:45:41.897Z,3.90
2022-08-26T17:50:41.837Z,8.80
2022-08-26T17:55:41.754Z,16.50
2022-08-26T18:00:41.682Z,5.90
2022-08-26T18:05:41.608Z,6.00
2022-08-26T18:10:41.560Z,5.09
2022-08-26T18:15:41.573Z,6.30
2022-08-26T18:20:41.417Z,7.00
2022-08-26T18:25:41.344Z,4.40
2022-08-26T18:30:41.347Z,4.50
2022-08-26T18:35:41.205Z,4.80
2022-08-26T18:40:41.157Z,4.09
2022-08-26T18:45:41.265Z,4.50
2022-08-26T18:50:42.341Z,4.30
2022-08-26T18:55:40.951Z,4.40
2022-08-26T19:00:40.893Z,5.30
2022-08-26T19:05:40.834Z,4.00
2022-08-26T19:10:40.776Z,4.69
2022-08-26T19:15:40.700Z,4.50
2022-08-26T19:20:43.561Z,4.80
2022-08-26T19:25:40.582Z,4.59
2022-08-26T19:30:40.627Z,4.30
2022-08-26T19:35:40.448Z,6.19
2022-08-26T19:40:40.417Z,4.80
2022-08-26T19:45:40.347Z,5.40
2022-08-26T19:50:40.270Z,5.40
2022-08-26T19:55:40.197Z,5.09
2022-08-26T20:00:40.141Z,4.50
2022-08-26T20:05:40.083Z,6.09
2022-08-26T20:10:40.014Z,5.09
2022-08-26T20:15:39.945Z,6.40
2022-08-26T20:20:39.893Z,5.69
2022-08-26T20:25:39.826Z,5.69
2022-08-26T20:30:39.771Z,5.40
2022-08-26T20:35:39.693Z,5.00
2022-08-26T20:40:39.629Z,5.09
2022-08-26T20:45:39.642Z,5.59
2022-08-26T20:50:39.512Z,5.59
2022-08-26T20:55:39.500Z,5.40
2022-08-26T21:00:39.423Z,5.69
2022-08-26T21:05:39.307Z,6.00
2022-08-26T21:10:39.251Z,6.69
2022-08-26T21:15:39.183Z,7.00
2022-08-26T21:20:39.127Z,7.19
2022-08-26T21:25:39.044Z,5.80
2022-08-26T21:30:39.004Z,5.40
2022-08-26T21:35:38.918Z,5.59
2022-08-26T21:40:38.867Z,5.59
2022-08-26T21:45:38.827Z,5.00
2022-08-26T21:50:38.734Z,5.19
2022-08-26T21:55:38.664Z,6.40
2022-08-26T22:00:38.604Z,6.00
2022-08-26T22:05:38.519Z,5.40
2022-08-26T22:10:38.475Z,5.90
2022-08-26T22:15:38.389Z,4.90
2022-08-26T22:20:38.332Z,4.80
2022-08-26T22:25:38.261Z,4.59
2022-08-26T22:30:38.211Z,4.19
2022-08-26T22:35:38.139Z,4.09
2022-08-26T22:40:38.069Z,4.50
2022-08-26T22:45:38.032Z,5.19
2022-08-26T22:50:37.947Z,4.80
2022-08-26T22:55:37.874Z,4.69
2022-08-26T23:00:37.827Z,4.09
2022-08-26T23:05:37.737Z,4.59
2022-08-26T23:10:37.677Z,4.59
2022-08-26T23:15:37.794Z,4.80
2022-08-26T23:20:37.545Z,4.90
2022-08-26T23:25:37.473Z,4.90
2022-08-26T23:30:37.413Z,4.40
2022-08-26T23:35:37.341Z,4.30
2022-08-26T23:40:37.380Z,4.69
2022-08-26T23:45:37.288Z,4.30
2022-08-26T23:50:37.163Z,4.80
2022-08-26T23:55:37.091Z,4.59
